createdAt,value
2018-11-03T00:00:14.611Z,12.85
2018-11-03T00:02:44.596Z,11.25
2018-11-03T00:05:14.234Z,12.63
2018-11-03T00:07:43.432Z,14.23
2018-11-03T00:10:12.401Z,13.55
2018-11-03T00:12:41.594Z,14.58
2018-11-03T00:15:11.141Z,12.43
2018-11-03T00:17:40.295Z,11.85
2018-11-03T00:20:09.273Z,13.40
2018-11-03T00:22:38.436Z,13.88
2018-11-03T00:25:08.120Z,13.00
2018-11-03T00:27:37.388Z,14.10
2018-11-03T00:30:08.272Z,15.20
2018-11-03T00:32:37.341Z,16.75
2018-11-03T00:35:06.622Z,13.85
2018-11-03T00:37:35.602Z,14.28
2018-11-03T00:40:05.622Z,14.33
2018-11-03T00:42:34.665Z,14.73
2018-11-03T00:45:03.713Z,14.45
2018-11-03T00:47:32.874Z,19.37
2018-11-03T00:50:02.028Z,16.42
2018-11-03T00:52:30.952Z,23.70
2018-11-03T00:55:00.354Z,20.50
2018-11-03T00:57:29.622Z,17.32
2018-11-03T00:59:58.562Z,18.57
2018-11-03T01:02:27.549Z,19.10
2018-11-03T01:04:56.826Z,20.92
2018-11-03T01:07:25.820Z,18.48
2018-11-03T01:09:54.814Z,17.77
2018-11-03T01:12:23.788Z,15.43
2018-11-03T01:14:52.734Z,17.75
2018-11-03T01:17:21.659Z,18.35
2018-11-03T01:19:50.772Z,19.60
2018-11-03T01:22:19.729Z,18.20
2018-11-03T01:24:48.675Z,19.55
2018-11-03T01:27:17.641Z,16.82
2018-11-03T01:29:47.136Z,22.80
2018-11-03T01:32:16.142Z,18.57
2018-11-03T01:34:45.326Z,18.48
2018-11-03T01:37:14.271Z,19.30
2018-11-03T01:39:43.486Z,18.30
2018-11-03T01:42:12.419Z,20.15
2018-11-03T01:44:41.380Z,20.45
2018-11-03T01:47:10.522Z,19.55
2018-11-03T01:49:39.688Z,21.35
2018-11-03T01:52:08.817Z,21.50
2018-11-03T01:54:38.087Z,20.17
2018-11-03T01:57:07.444Z,20.88
2018-11-03T01:59:36.377Z,20.40
2018-11-03T02:02:05.750Z,22.07
2018-11-03T02:04:34.703Z,21.60
2018-11-03T02:07:03.984Z,21.90
2018-11-03T02:09:32.882Z,23.62
2018-11-03T02:12:01.742Z,25.17
2018-11-03T02:14:34.465Z,26.15
2018-11-03T02:17:03.904Z,22.48
2018-11-03T02:19:32.897Z,28.15
2018-11-03T02:22:01.851Z,26.25
2018-11-03T02:24:30.772Z,25.82
2018-11-03T02:26:59.949Z,26.30
2018-11-03T02:29:29.114Z,25.62
2018-11-03T02:31:58.100Z,24.82
2018-11-03T02:34:27.571Z,25.32
2018-11-03T02:36:56.704Z,24.72
2018-11-03T02:39:25.864Z,23.27
2018-11-03T02:41:54.793Z,27.30
2018-11-03T02:44:23.750Z,26.45
2018-11-03T02:46:52.879Z,26.45
2018-11-03T02:49:21.830Z,25.15
2018-11-03T02:51:50.969Z,26.93
2018-11-03T02:54:20.120Z,27.62
2018-11-03T02:56:49.057Z,26.48
2018-11-03T02:59:18.179Z,26.73
2018-11-03T03:01:47.899Z,26.75
2018-11-03T03:04:16.984Z,26.75
2018-11-03T03:06:46.564Z,27.62
2018-11-03T03:09:15.498Z,27.75
2018-11-03T03:11:44.428Z,27.52
2018-11-03T03:14:13.634Z,25.37
2018-11-03T03:16:42.567Z,27.10
2018-11-03T03:19:11.535Z,26.35
2018-11-03T03:21:40.630Z,27.17
2018-11-03T03:24:09.750Z,29.12
2018-11-03T03:26:38.910Z,31.42
2018-11-03T03:29:08.067Z,27.37
2018-11-03T03:31:37.156Z,26.70
2018-11-03T03:34:06.520Z,26.00
2018-11-03T03:36:35.450Z,28.12
2018-11-03T03:39:06.706Z,27.07
2018-11-03T03:41:35.821Z,30.20
2018-11-03T03:44:05.185Z,29.67
2018-11-03T03:46:34.327Z,28.30
2018-11-03T03:49:03.261Z,25.27
2018-11-03T03:51:32.170Z,29.23
2018-11-03T03:54:01.284Z,28.02
2018-11-03T03:56:30.209Z,28.07
2018-11-03T03:58:59.141Z,28.85
2018-11-03T04:01:28.257Z,29.70
2018-11-03T04:03:57.204Z,27.70
2018-11-03T04:06:26.155Z,27.22
2018-11-03T04:08:55.293Z,27.17
2018-11-03T04:11:24.221Z,27.37
2018-11-03T04:13:53.154Z,28.65
2018-11-03T04:16:22.208Z,26.77
2018-11-03T04:18:51.303Z,30.15
2018-11-03T04:21:27.560Z,31.33
2018-11-03T04:23:57.510Z,27.73
2018-11-03T04:26:28.199Z,28.62
2018-11-03T04:28:57.605Z,30.48
2018-11-03T04:31:27.043Z,31.17
2018-11-03T04:33:56.290Z,31.75
2018-11-03T04:36:25.457Z,31.27
2018-11-03T04:38:54.424Z,31.15
2018-11-03T04:41:23.586Z,30.50
2018-11-03T04:43:52.540Z,33.10
2018-11-03T04:46:21.496Z,31.93
2018-11-03T04:48:54.272Z,32.35
2018-11-03T04:51:23.211Z,32.90
2018-11-03T04:53:52.385Z,35.65
2018-11-03T04:56:21.346Z,34.53
2018-11-03T04:58:50.460Z,31.60
2018-11-03T05:01:19.400Z,33.95
2018-11-03T05:03:48.372Z,32.35
2018-11-03T05:06:17.408Z,36.03
2018-11-03T05:08:46.616Z,34.85
2018-11-03T05:11:15.868Z,35.98
2018-11-03T05:13:44.751Z,35.10
2018-11-03T05:16:13.673Z,35.75
2018-11-03T05:18:42.602Z,35.20
2018-11-03T05:21:11.688Z,35.58
2018-11-03T05:23:40.811Z,34.67
2018-11-03T05:26:09.978Z,35.43
2018-11-03T05:28:39.162Z,35.98
2018-11-03T05:31:08.299Z,33.08
2018-11-03T05:33:37.359Z,37.73
2018-11-03T05:36:06.320Z,38.78
2018-11-03T05:38:35.457Z,33.83
2018-11-03T05:41:05.373Z,35.58
2018-11-03T05:43:34.578Z,35.43
2018-11-03T05:46:04.109Z,37.17
2018-11-03T05:48:33.256Z,31.25
2018-11-03T05:51:02.219Z,32.38
2018-11-03T05:53:31.183Z,33.38
2018-11-03T05:56:00.181Z,34.60
2018-11-03T05:58:29.132Z,33.23
2018-11-03T06:00:58.167Z,33.25
2018-11-03T06:03:27.678Z,35.50
2018-11-03T06:05:56.929Z,36.88
2018-11-03T06:08:26.095Z,37.70
2018-11-03T06:10:55.051Z,33.60
2018-11-03T06:13:24.010Z,37.70
2018-11-03T06:15:52.960Z,35.40
2018-11-03T06:18:22.786Z,33.48
2018-11-03T06:20:51.690Z,36.40
2018-11-03T06:23:20.685Z,35.48
2018-11-03T06:25:49.749Z,30.92
2018-11-03T06:28:19.181Z,34.45
2018-11-03T06:30:48.274Z,36.63
2018-11-03T06:33:17.420Z,34.80
2018-11-03T06:35:46.544Z,34.33
2018-11-03T06:38:17.227Z,33.58
2018-11-03T06:40:46.413Z,31.55
2018-11-03T06:43:15.374Z,32.63
2018-11-03T06:45:44.301Z,36.45
2018-11-03T06:48:13.510Z,34.18
2018-11-03T06:50:42.637Z,35.92
2018-11-03T06:53:11.789Z,32.63
2018-11-03T06:55:40.940Z,41.00
2018-11-03T06:58:09.998Z,43.30
2018-11-03T07:00:38.988Z,45.65
2018-11-03T07:03:08.027Z,42.98
2018-11-03T07:05:37.018Z,40.35
2018-11-03T07:08:06.362Z,39.65
2018-11-03T07:10:35.509Z,36.10
2018-11-03T07:13:05.101Z,35.58
2018-11-03T07:15:34.204Z,35.38
2018-11-03T07:18:03.289Z,35.25
2018-11-03T07:20:32.268Z,34.55
2018-11-03T07:23:01.379Z,34.08
2018-11-03T07:25:30.572Z,34.90
2018-11-03T07:27:59.507Z,34.35
2018-11-03T07:30:28.489Z,36.85
2018-11-03T07:32:57.491Z,37.70
2018-11-03T07:35:26.660Z,34.33
2018-11-03T07:37:55.584Z,35.92
2018-11-03T07:40:24.537Z,36.65
2018-11-03T07:42:53.484Z,34.92
2018-11-03T07:45:22.455Z,31.77
2018-11-03T07:47:51.553Z,35.58
2018-11-03T07:50:20.733Z,32.15
2018-11-03T07:52:49.680Z,36.08
2018-11-03T07:55:18.631Z,35.35
2018-11-03T07:57:47.804Z,35.08
2018-11-03T08:00:17.090Z,35.85
2018-11-03T08:02:46.270Z,32.58
2018-11-03T08:05:15.378Z,35.00
2018-11-03T08:07:44.321Z,37.30
2018-11-03T08:10:13.290Z,33.90
2018-11-03T08:12:42.254Z,33.48
2018-11-03T08:15:12.075Z,33.40
2018-11-03T08:17:41.337Z,38.33
2018-11-03T08:20:11.254Z,33.38
2018-11-03T08:22:40.401Z,33.23
2018-11-03T08:25:09.967Z,30.97
2018-11-03T08:27:39.123Z,33.25
2018-11-03T08:30:10.515Z,33.80
2018-11-03T08:32:39.627Z,30.90
2018-11-03T08:35:10.135Z,31.65
2018-11-03T08:37:39.671Z,34.00
2018-11-03T08:40:11.163Z,36.83
2018-11-03T08:42:41.484Z,31.42
2018-11-03T08:45:11.677Z,35.25
2018-11-03T08:47:41.361Z,33.50
2018-11-03T08:50:11.877Z,31.07
2018-11-03T08:52:41.603Z,31.97
2018-11-03T08:55:11.901Z,31.93
2018-11-03T08:57:41.309Z,33.33
2018-11-03T09:00:13.040Z,31.95
2018-11-03T09:02:42.585Z,31.77
2018-11-03T09:05:13.336Z,30.95
2018-11-03T09:07:42.695Z,33.40
2018-11-03T09:10:13.394Z,34.30
2018-11-03T09:12:43.184Z,34.25
2018-11-03T09:15:14.159Z,36.35
2018-11-03T09:17:44.641Z,35.80
2018-11-03T09:20:14.425Z,37.10
2018-11-03T09:22:43.619Z,35.15
2018-11-03T09:25:13.956Z,35.03
2018-11-03T09:27:44.197Z,35.50
2018-11-03T09:30:15.635Z,31.33
2018-11-03T09:32:44.608Z,34.55
2018-11-03T09:35:14.570Z,31.73
2018-11-03T09:37:43.501Z,32.05
2018-11-03T09:40:15.421Z,35.60
2018-11-03T09:42:45.521Z,32.95
2018-11-03T09:45:15.028Z,31.02
2018-11-03T09:47:44.622Z,32.67
2018-11-03T09:50:14.832Z,33.38
2018-11-03T09:52:44.217Z,30.37
2018-11-03T09:55:17.648Z,30.35
2018-11-03T09:57:46.705Z,32.90
2018-11-03T10:00:17.478Z,32.83
2018-11-03T10:02:46.972Z,32.40
2018-11-03T10:05:16.495Z,33.80
2018-11-03T10:07:45.717Z,33.50
2018-11-03T10:10:16.018Z,32.13
2018-11-03T10:12:44.968Z,31.30
2018-11-03T10:15:15.415Z,31.20
2018-11-03T10:17:44.927Z,29.00
2018-11-03T10:20:14.247Z,33.50
2018-11-03T10:22:43.364Z,31.68
2018-11-03T10:25:14.873Z,32.58
2018-11-03T10:27:44.389Z,30.37
2018-11-03T10:30:15.213Z,31.40
2018-11-03T10:32:44.428Z,30.95
2018-11-03T10:35:14.020Z,29.15
2018-11-03T10:37:43.235Z,32.05
2018-11-03T10:40:16.103Z,30.80
2018-11-03T10:42:45.485Z,28.98
2018-11-03T10:45:15.506Z,29.15
2018-11-03T10:47:45.028Z,28.75
2018-11-03T10:50:16.905Z,29.30
2018-11-03T10:52:46.526Z,28.42
2018-11-03T10:55:17.024Z,28.52
2018-11-03T10:57:46.454Z,33.95
2018-11-03T11:00:22.686Z,26.85
2018-11-03T11:02:57.413Z,29.15
2018-11-03T11:05:31.986Z,28.27
2018-11-03T11:08:06.384Z,28.92
2018-11-03T11:10:40.899Z,28.10
2018-11-03T11:13:15.067Z,28.40
2018-11-03T11:15:44.481Z,27.05
2018-11-03T11:18:13.590Z,27.42
2018-11-03T11:20:42.932Z,27.35
2018-11-03T11:23:12.024Z,28.83
2018-11-03T11:25:41.175Z,28.77
2018-11-03T11:28:10.326Z,27.27
2018-11-03T11:30:41.078Z,28.80
2018-11-03T11:33:11.811Z,29.23
2018-11-03T11:35:41.170Z,27.73
2018-11-03T11:38:10.860Z,28.15
2018-11-03T11:40:40.474Z,26.77
2018-11-03T11:43:10.166Z,28.38
2018-11-03T11:45:39.705Z,24.43
2018-11-03T11:48:08.790Z,23.85
2018-11-03T11:50:38.666Z,24.07
2018-11-03T11:53:08.476Z,24.27
2018-11-03T11:55:37.718Z,21.55
2018-11-03T11:58:06.975Z,22.67
2018-11-03T12:00:36.357Z,20.82
2018-11-03T12:03:05.915Z,22.98
2018-11-03T12:05:35.065Z,19.95
2018-11-03T12:08:04.380Z,23.07
2018-11-03T12:10:33.613Z,20.02
2018-11-03T12:13:02.577Z,18.15
2018-11-03T12:15:31.537Z,20.48
2018-11-03T12:18:00.860Z,22.87
2018-11-03T12:20:29.791Z,23.12
2018-11-03T12:22:58.816Z,23.80
2018-11-03T12:25:27.769Z,21.25
2018-11-03T12:27:56.989Z,22.62
2018-11-03T12:30:26.139Z,19.57
2018-11-03T12:32:55.294Z,22.22
2018-11-03T12:35:24.481Z,20.20
2018-11-03T12:37:54.095Z,16.52
2018-11-03T12:40:23.446Z,19.65
2018-11-03T12:42:52.668Z,17.62
2018-11-03T12:45:21.786Z,16.62
2018-11-03T12:47:50.831Z,19.30
2018-11-03T12:50:20.010Z,15.63
2018-11-03T12:52:49.056Z,15.28
2018-11-03T12:55:17.994Z,15.50
2018-11-03T12:57:47.440Z,15.83
2018-11-03T13:00:16.711Z,13.72
2018-11-03T13:02:46.326Z,16.32
2018-11-03T13:05:15.551Z,15.90
2018-11-03T13:07:45.579Z,17.15
2018-11-03T13:10:14.584Z,15.53
2018-11-03T13:12:43.660Z,18.73
2018-11-03T13:15:13.372Z,15.70
2018-11-03T13:17:42.486Z,14.98
2018-11-03T13:20:13.403Z,14.28
2018-11-03T13:22:43.040Z,15.75
2018-11-03T13:25:12.670Z,16.90
2018-11-03T13:27:42.170Z,17.37
2018-11-03T13:30:13.050Z,14.25
2018-11-03T13:32:42.021Z,17.00
2018-11-03T13:35:12.582Z,17.00
2018-11-03T13:37:41.808Z,15.88
2018-11-03T13:40:12.411Z,16.97
2018-11-03T13:42:41.614Z,13.05
2018-11-03T13:45:10.814Z,17.90
2018-11-03T13:47:40.148Z,15.35
2018-11-03T13:50:12.929Z,16.73
2018-11-03T13:52:43.674Z,14.03
2018-11-03T13:55:12.746Z,15.40
2018-11-03T13:57:42.844Z,13.98
2018-11-03T14:00:13.469Z,11.45
2018-11-03T14:02:43.631Z,12.58
2018-11-03T14:05:12.637Z,11.50
2018-11-03T14:07:41.566Z,13.85
2018-11-03T14:10:12.939Z,13.45
2018-11-03T14:12:42.953Z,10.55
2018-11-03T14:15:21.933Z,11.97
2018-11-03T14:17:50.931Z,13.83
2018-11-03T14:20:19.899Z,10.38
2018-11-03T14:22:48.921Z,14.68
2018-11-03T14:25:18.463Z,12.93
2018-11-03T14:27:47.923Z,13.15
2018-11-03T14:30:17.044Z,11.83
2018-11-03T14:32:45.972Z,11.15
2018-11-03T14:35:15.657Z,10.45
2018-11-03T14:37:44.619Z,8.78
2018-11-03T14:40:14.945Z,11.12
2018-11-03T14:42:44.534Z,11.35
2018-11-03T14:45:14.528Z,11.15
2018-11-03T14:47:43.642Z,14.68
2018-11-03T14:50:12.658Z,10.03
2018-11-03T14:52:42.517Z,10.65
2018-11-03T14:55:12.236Z,11.00
2018-11-03T14:57:41.214Z,11.10
2018-11-03T15:00:12.879Z,12.88
2018-11-03T15:02:41.983Z,10.80
2018-11-03T15:05:11.617Z,11.18
2018-11-03T15:07:40.570Z,10.48
2018-11-03T15:10:10.445Z,10.28
2018-11-03T15:12:40.020Z,10.78
2018-11-03T15:15:11.122Z,11.68
2018-11-03T15:17:40.053Z,11.90
2018-11-03T15:20:10.153Z,12.47
2018-11-03T15:22:39.264Z,11.30
2018-11-03T15:25:08.708Z,14.33
2018-11-03T15:27:37.828Z,10.50
2018-11-03T15:30:08.346Z,12.28
2018-11-03T15:32:37.766Z,14.38
2018-11-03T15:35:07.450Z,13.08
2018-11-03T15:37:37.185Z,11.85
2018-11-03T15:40:08.301Z,16.60
2018-11-03T15:42:37.560Z,16.15
2018-11-03T15:45:08.552Z,12.85
2018-11-03T15:47:37.987Z,14.07
2018-11-03T15:50:07.835Z,14.20
2018-11-03T15:52:36.744Z,15.90
2018-11-03T15:55:06.445Z,16.15
2018-11-03T15:57:35.629Z,14.38
2018-11-03T16:00:06.319Z,18.27
2018-11-03T16:02:35.254Z,19.87
2018-11-03T16:05:04.329Z,21.75
2018-11-03T16:07:33.463Z,16.85
2018-11-03T16:10:02.445Z,19.02
2018-11-03T16:12:31.474Z,19.48
2018-11-03T16:15:00.707Z,19.55
2018-11-03T16:17:29.739Z,19.17
2018-11-03T16:19:58.727Z,17.25
2018-11-03T16:22:27.771Z,19.37
2018-11-03T16:24:57.115Z,23.10
2018-11-03T16:27:26.113Z,21.45
2018-11-03T16:29:55.107Z,19.77
2018-11-03T16:32:24.411Z,21.23
2018-11-03T16:34:53.409Z,22.95
2018-11-03T16:37:22.416Z,20.23
2018-11-03T16:39:51.384Z,24.65
2018-11-03T16:42:20.375Z,23.42
2018-11-03T16:44:49.322Z,24.82
2018-11-03T16:47:18.374Z,25.75
2018-11-03T16:49:47.345Z,24.52
2018-11-03T16:52:16.416Z,30.43
2018-11-03T16:54:45.436Z,29.05
2018-11-03T16:57:14.472Z,28.30
2018-11-03T16:59:43.517Z,26.77
2018-11-03T17:02:12.635Z,26.80
2018-11-03T17:04:41.599Z,31.97
2018-11-03T17:07:10.651Z,25.45
2018-11-03T17:09:39.723Z,30.85
2018-11-03T17:12:08.708Z,22.40
2018-11-03T17:14:37.980Z,29.80
2018-11-03T17:17:06.939Z,29.52
2018-11-03T17:19:36.038Z,27.70
2018-11-03T17:22:05.088Z,24.40
2018-11-03T17:24:34.144Z,31.48
2018-11-03T17:27:03.205Z,32.55
2018-11-03T17:29:32.226Z,39.00
2018-11-03T17:32:01.228Z,33.13
2018-11-03T17:34:30.217Z,39.23
2018-11-03T17:36:59.190Z,30.70
2018-11-03T17:39:28.297Z,46.95
2018-11-03T17:41:57.328Z,40.73
2018-11-03T17:44:26.276Z,37.60
2018-11-03T17:46:55.262Z,27.77
2018-11-03T17:49:24.210Z,26.82
2018-11-03T17:51:53.190Z,26.90
2018-11-03T17:54:22.288Z,29.48
2018-11-03T17:56:52.346Z,37.28
2018-11-03T17:59:21.320Z,31.52
2018-11-03T18:01:50.313Z,36.25
2018-11-03T18:04:19.306Z,37.33
2018-11-03T18:06:48.528Z,44.77
2018-11-03T18:09:17.479Z,46.75
2018-11-03T18:11:46.470Z,42.95
2018-11-03T18:14:15.456Z,41.18
2018-11-03T18:16:44.430Z,41.40
2018-11-03T18:19:13.494Z,34.03
2018-11-03T18:21:42.496Z,35.83
2018-11-03T18:24:11.571Z,35.05
2018-11-03T18:26:40.603Z,37.67
2018-11-03T18:29:09.853Z,33.95
2018-11-03T18:31:38.989Z,41.48
2018-11-03T18:34:07.992Z,27.90
2018-11-03T18:36:37.257Z,26.45
2018-11-03T18:39:07.805Z,25.77
2018-11-03T18:41:37.229Z,25.57
2018-11-03T18:44:06.457Z,19.95
2018-11-03T18:46:35.514Z,22.80
2018-11-03T18:49:04.721Z,18.87
2018-11-03T18:51:33.693Z,18.60
2018-11-03T18:54:03.034Z,17.57
2018-11-03T18:56:31.991Z,16.90
2018-11-03T18:59:01.554Z,19.35
2018-11-03T19:01:30.676Z,17.02
2018-11-03T19:03:59.726Z,17.77
2018-11-03T19:06:28.705Z,15.48
2018-11-03T19:08:58.061Z,23.07
2018-11-03T19:11:27.070Z,17.20
2018-11-03T19:13:56.552Z,22.45
2018-11-03T19:16:25.756Z,17.30
2018-11-03T19:18:55.137Z,17.75
2018-11-03T19:21:24.444Z,17.27
2018-11-03T19:23:53.762Z,16.55
2018-11-03T19:26:23.147Z,17.55
2018-11-03T19:28:52.547Z,18.15
2018-11-03T19:31:21.849Z,24.37
2018-11-03T19:33:51.429Z,19.20
2018-11-03T19:36:20.748Z,20.00
2018-11-03T19:38:50.064Z,18.17
2018-11-03T19:41:19.461Z,21.87
2018-11-03T19:43:48.811Z,20.75
2018-11-03T19:46:18.157Z,23.38
2018-11-03T19:48:47.876Z,21.70
2018-11-03T19:51:17.272Z,18.98
2018-11-03T19:53:46.776Z,19.23
2018-11-03T19:56:16.074Z,22.77
2018-11-03T19:58:45.122Z,26.93
2018-11-03T20:01:14.157Z,19.42
2018-11-03T20:03:43.110Z,19.62
2018-11-03T20:06:12.205Z,20.52
2018-11-03T20:08:41.189Z,21.82
2018-11-03T20:11:10.190Z,18.17
2018-11-03T20:13:39.237Z,19.50
2018-11-03T20:16:08.206Z,21.55
2018-11-03T20:18:37.123Z,22.40
2018-11-03T20:21:06.705Z,20.75
2018-11-03T20:23:35.757Z,25.05
2018-11-03T20:26:04.920Z,19.23
2018-11-03T20:28:34.069Z,21.50
2018-11-03T20:31:03.234Z,19.52
2018-11-03T20:33:32.311Z,20.08
2018-11-03T20:36:01.245Z,18.75
2018-11-03T20:38:30.231Z,21.30
2018-11-03T20:40:59.212Z,22.05
2018-11-03T20:43:28.296Z,19.90
2018-11-03T20:45:57.712Z,20.57
2018-11-03T20:48:27.001Z,22.73
2018-11-03T20:51:01.247Z,19.07
2018-11-03T20:53:30.441Z,20.27
2018-11-03T20:55:59.595Z,20.72
2018-11-03T20:58:28.539Z,19.57
2018-11-03T21:00:57.532Z,21.27
2018-11-03T21:03:26.450Z,20.27
2018-11-03T21:05:55.500Z,21.05
2018-11-03T21:08:24.550Z,19.48
2018-11-03T21:10:53.622Z,20.37
2018-11-03T21:13:22.654Z,21.55
2018-11-03T21:15:51.744Z,24.72
2018-11-03T21:18:21.018Z,22.17
2018-11-03T21:20:49.945Z,20.52
2018-11-03T21:23:18.865Z,17.85
2018-11-03T21:25:47.982Z,21.33
2018-11-03T21:28:16.965Z,23.57
2018-11-03T21:30:45.920Z,18.98
2018-11-03T21:33:15.155Z,21.90
2018-11-03T21:35:44.106Z,20.75
2018-11-03T21:38:13.093Z,19.82
2018-11-03T21:40:42.216Z,19.77
2018-11-03T21:43:11.177Z,22.17
2018-11-03T21:45:40.122Z,21.90
2018-11-03T21:48:09.020Z,18.80
2018-11-03T21:50:37.960Z,24.87
2018-11-03T21:53:07.234Z,18.52
2018-11-03T21:55:36.176Z,21.05
2018-11-03T21:58:05.342Z,19.12
2018-11-03T22:00:34.274Z,21.27
2018-11-03T22:03:03.677Z,21.27
2018-11-03T22:05:32.736Z,22.20
2018-11-03T22:08:01.687Z,20.57
2018-11-03T22:10:30.641Z,20.68
2018-11-03T22:12:59.885Z,21.05
2018-11-03T22:15:28.880Z,23.85
2018-11-03T22:17:57.822Z,23.77
2018-11-03T22:20:26.779Z,24.98
2018-11-03T22:22:55.784Z,25.75
2018-11-03T22:25:24.723Z,22.55
2018-11-03T22:27:53.733Z,23.05
2018-11-03T22:30:22.885Z,23.98
2018-11-03T22:32:51.819Z,21.65
2018-11-03T22:35:20.763Z,20.90
2018-11-03T22:37:49.739Z,20.62
2018-11-03T22:40:18.671Z,21.93
2018-11-03T22:42:47.671Z,22.27
2018-11-03T22:45:16.591Z,21.45
2018-11-03T22:47:45.559Z,25.15
2018-11-03T22:50:14.722Z,23.12
2018-11-03T22:52:43.783Z,22.93
2018-11-03T22:55:12.982Z,21.97
2018-11-03T22:57:42.015Z,24.87
2018-11-03T23:00:13.369Z,25.70
2018-11-03T23:02:43.158Z,23.35
2018-11-03T23:05:13.431Z,23.83
2018-11-03T23:07:42.544Z,24.80
2018-11-03T23:10:11.730Z,24.65
2018-11-03T23:12:40.731Z,26.40
2018-11-03T23:15:11.035Z,24.18
2018-11-03T23:17:40.140Z,28.75
2018-11-03T23:20:12.082Z,26.27
2018-11-03T23:22:41.183Z,22.65
2018-11-03T23:25:10.716Z,23.20
2018-11-03T23:27:39.655Z,24.20
2018-11-03T23:30:10.756Z,25.90
2018-11-03T23:32:40.458Z,24.92
2018-11-03T23:35:11.660Z,27.35
2018-11-03T23:37:40.870Z,26.93
2018-11-03T23:40:10.871Z,25.82
2018-11-03T23:42:46.250Z,29.23
2018-11-03T23:45:15.532Z,25.68
2018-11-03T23:47:44.502Z,25.60
2018-11-03T23:50:14.263Z,28.90
2018-11-03T23:52:46.691Z,29.80
2018-11-03T23:55:16.040Z,28.00
2018-11-03T23:57:44.971Z,28.12
